Terminal Aerodrome Forecast
Issued by NWS

Home | Current Version | Previous Version | Text Only | Print | Product List | Glossary On
Versions: 1 2 3 4 5 6 7 8 9 10 11 12 13 14 15 16 17 18
000
FTUS43 KAPX 211800 AAA
TAFAPN
TAF AMD
KAPN 211856Z 2119/2218 01012G21KT P6SM FEW035
     FM212300 02007KT P6SM BKN029
     FM220500 03005KT P6SM BKN020
     FM221400 03006KT P6SM SCT025=

USA.gov is the U.S. government's official web portal to all federal, state and local government web resources and services.